Time;durP1;ratioP1;P1;durP2;ratioP2;P2;SDS_P1;SDS_P2;PMS_P1;PMS_P2;Temp;Humidity;BMP_temperature;BMP_pressure;BME280_temperature;BME280_humidity;BME280_pressure;Samples;Min_cycle;Max_cycle;Signal;HPM_P1;HPM_P2
2024/02/24 00:04:57;;;;;;;19.30;12.30;;;;;;;7.79;89.14;97169.54;226562;1273;25259;-75
2024/02/24 00:09:59;;;;;;;19.20;13.10;;;;;;;7.84;88.69;97166.77;226699;1273;22579;-76
2024/02/24 00:15:01;;;;;;;19.20;13.10;;;;;;;7.87;88.67;97158.29;226705;1273;22550;-76
2024/02/24 00:20:04;;;;;;;18.70;13.20;;;;;;;7.89;88.41;97151.48;226613;1274;23018;-74
2024/02/24 00:25:06;;;;;;;17.20;12.30;;;;;;;7.90;88.08;97144.55;226565;1273;22603;-74
2024/02/24 00:30:08;;;;;;;15.80;11.30;;;;;;;7.87;88.35;97132.06;226607;1273;25407;-76
2024/02/24 00:35:10;;;;;;;16.60;11.30;;;;;;;7.83;88.01;97121.88;226580;1273;22556;-75
2024/02/24 00:40:12;;;;;;;14.70;11.00;;;;;;;7.78;87.94;97120.15;226618;1273;22549;-76
2024/02/24 00:45:14;;;;;;;16.50;12.50;;;;;;;7.75;88.01;97119.77;226618;1273;22665;-75
2024/02/24 00:50:16;;;;;;;15.60;12.10;;;;;;;7.72;88.06;97119.82;226533;1275;22590;-76
2024/02/24 00:55:18;;;;;;;17.00;12.10;;;;;;;7.70;88.00;97121.02;226449;1274;22551;-75
2024/02/24 01:00:20;;;;;;;11.60;9.40;;;;;;;7.74;88.16;97111.88;226637;1276;24285;-75
2024/02/24 01:05:22;;;;;;;10.00;7.90;;;;;;;7.88;88.71;97108.02;226706;1271;22545;-76
2024/02/24 01:10:28;;;;;;;9.10;7.30;;;;;;;8.06;88.33;97106.19;226671;1271;22568;-76
2024/02/24 01:15:32;;;;;;;9.20;6.90;;;;;;;8.23;87.95;97109.38;226657;1272;22538;-76
2024/02/24 01:20:34;;;;;;;9.30;7.60;;;;;;;8.38;87.91;97112.73;226640;1271;22529;-76
2024/02/24 01:25:37;;;;;;;9.70;7.30;;;;;;;8.49;87.65;97123.01;226633;1271;22571;-74
2024/02/24 01:30:39;;;;;;;9.20;7.50;;;;;;;8.56;87.17;97122.55;226545;1274;22609;-75
2024/02/24 01:35:40;;;;;;;8.80;6.70;;;;;;;8.61;87.18;97116.23;226575;1274;22562;-76
2024/02/24 01:40:42;;;;;;;8.00;6.80;;;;;;;8.65;87.02;97109.86;226585;1274;22951;-76
2024/02/24 01:45:44;;;;;;;8.30;7.30;;;;;;;8.68;86.64;97100.28;226610;1274;25377;-74
2024/02/24 01:50:49;;;;;;;10.90;7.30;;;;;;;8.70;86.63;97078.84;226401;1274;22585;-74
2024/02/24 01:55:52;;;;;;;8.00;6.80;;;;;;;8.72;86.65;97072.98;226645;1273;22654;-75
2024/02/24 02:00:54;;;;;;;7.90;7.10;;;;;;;8.73;86.53;97076.02;226631;1270;22553;-75
2024/02/24 02:05:57;;;;;;;9.90;7.00;;;;;;;8.74;86.45;97076.21;226649;1272;23068;-75
2024/02/24 02:10:59;;;;;;;8.50;7.00;;;;;;;8.76;86.46;97079.98;226468;1271;244559;-76
2024/02/24 02:16:01;;;;;;;7.80;7.00;;;;;;;8.77;86.30;97072.18;226649;1271;22559;-76
2024/02/24 02:21:04;;;;;;;7.20;5.80;;;;;;;8.79;86.44;97070.30;226626;1274;23340;-75
2024/02/24 02:26:06;;;;;;;5.90;5.30;;;;;;;8.82;86.30;97066.02;226432;1276;25422;-75
2024/02/24 02:31:08;;;;;;;5.60;5.10;;;;;;;8.86;86.47;97065.02;226640;1260;24264;-77
2024/02/24 02:36:10;;;;;;;5.30;4.60;;;;;;;8.92;86.17;97061.23;226586;1274;22560;-75
2024/02/24 02:41:12;;;;;;;4.50;4.10;;;;;;;8.99;85.90;97061.28;226573;1276;22547;-76
2024/02/24 02:46:14;;;;;;;4.40;4.00;;;;;;;9.04;85.58;97061.05;226474;1274;22554;-76
2024/02/24 02:51:16;;;;;;;4.40;4.00;;;;;;;9.10;85.42;97059.92;226623;1273;22573;-76
2024/02/24 02:56:20;;;;;;;4.30;3.90;;;;;;;9.16;84.99;97061.36;226596;1272;22616;-75
2024/02/24 03:01:23;;;;;;;4.20;3.60;;;;;;;9.20;84.74;97065.73;226607;1273;22563;-75
2024/02/24 03:06:25;;;;;;;4.70;3.50;;;;;;;9.26;84.82;97070.19;226537;1276;22611;-74
2024/02/24 03:11:27;;;;;;;4.10;3.70;;;;;;;9.29;84.59;97077.50;226552;1271;22554;-76
2024/02/24 03:16:30;;;;;;;3.60;3.30;;;;;;;9.31;84.23;97083.96;226600;1271;22568;-76
2024/02/24 03:21:32;;;;;;;4.00;3.60;;;;;;;9.34;84.33;97089.41;226622;1276;22547;-76
2024/02/24 03:26:34;;;;;;;3.70;3.30;;;;;;;9.37;84.00;97097.73;226632;1275;22551;-76
2024/02/24 03:31:36;;;;;;;4.10;3.70;;;;;;;9.39;83.95;97098.20;226601;1272;22547;-77
2024/02/24 03:36:38;;;;;;;3.80;3.30;;;;;;;9.41;83.89;97102.04;226583;1276;22587;-75
2024/02/24 03:41:40;;;;;;;3.70;3.10;;;;;;;9.42;83.70;97109.98;226550;1276;22666;-76
2024/02/24 03:46:42;;;;;;;4.10;3.50;;;;;;;9.43;83.61;97112.32;226654;1276;25371;-76
2024/02/24 03:51:44;;;;;;;3.70;3.40;;;;;;;9.43;83.64;97111.06;226613;1276;22574;-75
2024/02/24 03:56:49;;;;;;;5.10;4.20;;;;;;;9.44;83.45;97116.20;226575;1276;22545;-75
2024/02/24 04:01:52;;;;;;;5.00;3.40;;;;;;;9.45;83.28;97114.40;226552;1276;26157;-76
2024/02/24 04:06:54;;;;;;;4.60;3.70;;;;;;;9.47;83.24;97109.55;226543;1276;22556;-76
2024/02/24 04:11:56;;;;;;;3.60;3.30;;;;;;;9.49;83.06;97115.61;226588;1276;22569;-75
2024/02/24 04:16:58;;;;;;;3.50;3.20;;;;;;;9.50;83.05;97119.63;226616;1273;22575;-75
2024/02/24 04:22:00;;;;;;;3.60;3.30;;;;;;;9.51;82.93;97131.66;226594;1276;22553;-75
2024/02/24 04:27:02;;;;;;;3.40;3.10;;;;;;;9.51;82.96;97141.20;226516;1274;22576;-75
2024/02/24 04:32:05;;;;;;;3.80;3.50;;;;;;;9.49;82.99;97147.20;226578;1273;22542;-75
2024/02/24 04:37:09;;;;;;;3.50;3.20;;;;;;;9.46;82.77;97159.45;226581;1274;22552;-75
2024/02/24 04:42:11;;;;;;;4.30;3.70;;;;;;;9.41;82.78;97163.99;226532;1275;23293;-75
2024/02/24 04:47:14;;;;;;;4.10;3.70;;;;;;;9.35;83.00;97177.16;226636;1273;25340;-76
2024/02/24 04:52:15;;;;;;;5.50;4.10;;;;;;;9.31;82.77;97189.46;226648;1276;22547;-76
2024/02/24 04:57:17;;;;;;;3.80;3.50;;;;;;;9.28;82.98;97200.39;226573;1273;22560;-76
2024/02/24 05:02:19;;;;;;;5.40;4.40;;;;;;;9.27;83.04;97217.34;226513;1272;22553;-76
2024/02/24 05:07:21;;;;;;;8.60;6.00;;;;;;;9.22;83.02;97230.09;226566;1276;22684;-75
2024/02/24 05:12:24;;;;;;;7.40;5.50;;;;;;;9.07;82.99;97235.08;226567;1273;22546;-76
2024/02/24 05:17:26;;;;;;;7.90;6.60;;;;;;;8.94;83.31;97251.45;226585;1272;24215;-76
2024/02/24 05:22:30;;;;;;;7.60;6.90;;;;;;;8.80;83.85;97256.48;226576;1274;22585;-76
2024/02/24 05:27:32;;;;;;;9.10;8.20;;;;;;;8.68;83.86;97274.04;226596;1272;22701;-76
2024/02/24 05:32:34;;;;;;;9.90;8.90;;;;;;;8.56;84.03;97302.70;226409;1276;22617;-76
2024/02/24 05:37:36;;;;;;;9.30;8.40;;;;;;;8.37;83.88;97318.63;226511;1273;24240;-76
2024/02/24 05:42:38;;;;;;;8.80;8.00;;;;;;;8.11;84.17;97330.25;226544;1276;22550;-76
2024/02/24 05:47:40;;;;;;;7.40;6.70;;;;;;;7.88;84.07;97353.59;226623;1276;22546;-75
2024/02/24 05:52:42;;;;;;;8.70;7.80;;;;;;;7.67;84.57;97361.47;226637;1276;23777;-75
2024/02/24 05:57:44;;;;;;;8.60;7.70;;;;;;;7.52;85.01;97368.48;226593;1275;22550;-76
2024/02/24 06:02:47;;;;;;;7.40;6.60;;;;;;;7.41;86.00;97384.90;226536;1276;22541;-76
2024/02/24 06:07:49;;;;;;;5.80;5.20;;;;;;;7.29;86.49;97393.22;226557;1273;22557;-78
2024/02/24 06:12:54;;;;;;;3.10;2.80;;;;;;;7.19;86.43;97411.71;226586;1261;22553;-75
2024/02/24 06:17:56;;;;;;;3.40;2.80;;;;;;;7.04;85.44;97426.04;226555;1273;22585;-75
2024/02/24 06:22:58;;;;;;;3.50;2.70;;;;;;;6.90;85.17;97420.84;226590;1273;22599;-75
2024/02/24 06:28:00;;;;;;;3.50;2.70;;;;;;;6.84;85.58;97427.44;226522;1276;23075;-75
2024/02/24 06:33:02;;;;;;;2.10;1.90;;;;;;;6.79;85.25;97436.84;226543;1276;22543;-76
2024/02/24 06:38:04;;;;;;;1.60;1.50;;;;;;;6.72;85.21;97458.36;226529;1270;22546;-75
2024/02/24 06:43:06;;;;;;;1.60;1.40;;;;;;;6.63;84.85;97479.13;226566;1273;22588;-76
2024/02/24 06:48:08;;;;;;;1.20;1.10;;;;;;;6.53;84.90;97480.40;226543;1273;22705;-76
2024/02/24 06:53:12;;;;;;;0.80;0.80;;;;;;;6.43;84.53;97498.46;226622;1274;24315;-76
2024/02/24 06:58:14;;;;;;;1.20;1.10;;;;;;;6.34;84.71;97519.90;226582;1273;22531;-75
2024/02/24 07:03:18;;;;;;;1.90;1.80;;;;;;;6.29;84.96;97527.55;226487;1276;22590;-76
2024/02/24 07:08:20;;;;;;;3.30;2.60;;;;;;;6.27;85.41;97545.98;226550;1272;22540;-75
2024/02/24 07:13:22;;;;;;;1.70;1.50;;;;;;;6.18;85.17;97553.23;226554;1276;25526;-75
2024/02/24 07:18:24;;;;;;;1.80;1.70;;;;;;;5.99;84.24;97564.85;226502;1268;23617;-75
2024/02/24 07:23:26;;;;;;;1.70;1.40;;;;;;;5.79;84.66;97577.88;226485;1270;22549;-74
2024/02/24 07:28:30;;;;;;;1.60;1.50;;;;;;;5.62;84.83;97591.36;226542;1274;22575;-74
2024/02/24 07:33:32;;;;;;;3.00;1.20;;;;;;;5.51;84.94;97599.22;226475;1274;22561;-74
2024/02/24 07:38:38;;;;;;;1.20;1.10;;;;;;;5.46;85.54;97608.00;226601;1273;22546;-75
2024/02/24 07:43:41;;;;;;;1.20;1.10;;;;;;;5.39;85.29;97622.81;226587;1273;22543;-75
2024/02/24 07:48:43;;;;;;;1.40;1.10;;;;;;;5.36;85.35;97634.05;226490;1271;25138;-75
2024/02/24 07:53:45;;;;;;;1.50;1.20;;;;;;;5.33;85.62;97646.58;226537;1264;22559;-76
2024/02/24 07:58:47;;;;;;;1.90;1.40;;;;;;;5.39;85.70;97651.70;226547;1267;22567;-76
2024/02/24 08:03:49;;;;;;;1.40;1.30;;;;;;;5.48;85.54;97646.42;226686;1267;22543;-76
2024/02/24 08:08:52;;;;;;;1.50;1.40;;;;;;;5.56;85.67;97655.19;226659;1254;22592;-76
2024/02/24 08:13:55;;;;;;;1.30;1.20;;;;;;;5.68;85.51;97663.86;226538;1257;22543;-76
2024/02/24 08:18:57;;;;;;;1.50;1.40;;;;;;;5.82;85.60;97667.70;226662;1268;22567;-77
2024/02/24 08:23:59;;;;;;;1.70;1.30;;;;;;;6.00;85.33;97671.54;226483;1252;22560;-76
2024/02/24 08:29:01;;;;;;;1.80;1.70;;;;;;;6.12;85.41;97670.20;226455;1267;22555;-76
2024/02/24 08:34:03;;;;;;;1.60;1.50;;;;;;;6.26;85.68;97680.70;226449;1269;24283;-77
2024/02/24 08:39:06;;;;;;;1.70;1.50;;;;;;;6.46;85.11;97691.02;226431;1261;22549;-76
2024/02/24 08:44:08;;;;;;;1.50;1.30;;;;;;;6.76;85.11;97693.00;226578;1271;22539;-75
2024/02/24 08:49:10;;;;;;;1.90;1.70;;;;;;;7.08;85.01;97702.64;226214;1272;22539;-76
2024/02/24 08:54:14;;;;;;;1.70;1.60;;;;;;;7.31;84.18;97708.85;226394;1269;22545;-76
2024/02/24 08:59:16;;;;;;;4.90;4.10;;;;;;;7.56;84.01;97713.38;226298;1273;22964;-76
2024/02/24 09:04:19;;;;;;;2.30;1.80;;;;;;;7.86;84.06;97724.10;226557;1261;22482;-80
2024/02/24 09:09:21;;;;;;;1.90;1.80;;;;;;;8.08;83.51;97734.02;226213;1262;22640;-77
2024/02/24 09:14:23;;;;;;;1.90;1.70;;;;;;;8.24;83.00;97739.00;226290;1260;23240;-76
2024/02/24 09:19:26;;;;;;;2.90;1.90;;;;;;;8.29;82.57;97747.24;226511;1273;23780;-78
2024/02/24 09:24:28;;;;;;;1.70;1.60;;;;;;;8.40;82.22;97763.77;226545;1260;22581;-77
2024/02/24 09:29:30;;;;;;;1.20;1.10;;;;;;;8.55;81.48;97780.45;226596;1267;27020;-77
2024/02/24 09:34:32;;;;;;;1.60;1.30;;;;;;;8.53;80.15;97790.12;226543;1260;22567;-77
2024/02/24 09:39:34;;;;;;;1.20;1.10;;;;;;;8.54;80.81;97798.06;226275;1267;25577;-78
2024/02/24 09:44:38;;;;;;;1.30;1.20;;;;;;;8.57;79.94;97797.87;226182;1273;22554;-78
2024/02/24 09:49:41;;;;;;;2.10;1.70;;;;;;;8.58;79.63;97805.04;226411;1269;23082;-78
2024/02/24 09:54:42;;;;;;;1.60;1.50;;;;;;;8.63;79.80;97816.27;226598;1263;24342;-78
2024/02/24 09:59:48;;;;;;;2.30;1.70;;;;;;;8.67;79.72;97831.66;226337;1260;22547;-78
2024/02/24 10:04:52;;;;;;;3.20;2.40;;;;;;;8.76;79.83;97836.96;226341;1252;25268;-78
2024/02/24 10:09:55;;;;;;;2.50;1.90;;;;;;;8.98;79.80;97844.61;226431;1267;22543;-77
2024/02/24 10:14:57;;;;;;;1.40;1.30;;;;;;;9.18;79.15;97851.48;226451;1267;22554;-77
2024/02/24 10:19:59;;;;;;;3.00;2.00;;;;;;;9.20;78.79;97862.21;226470;1252;24257;-77
2024/02/24 10:25:01;;;;;;;2.20;1.90;;;;;;;9.16;78.61;97868.20;226591;1267;22655;-77
2024/02/24 10:30:05;;;;;;;2.40;2.20;;;;;;;9.05;78.05;97872.18;226385;1268;23295;-77
2024/02/24 10:35:08;;;;;;;1.80;1.60;;;;;;;8.93;77.87;97872.68;226522;1252;22560;-77
2024/02/24 10:40:12;;;;;;;2.10;1.80;;;;;;;8.88;77.81;97873.34;226661;1264;22555;-77
2024/02/24 10:45:14;;;;;;;2.40;2.20;;;;;;;8.85;77.83;97870.40;226558;1267;22574;-77
2024/02/24 10:50:16;;;;;;;2.60;2.40;;;;;;;8.90;78.04;97878.23;226633;1268;22550;-78
2024/02/24 10:55:22;;;;;;;2.70;2.20;;;;;;;8.98;77.64;97889.55;226561;1251;22548;-77
2024/02/24 11:00:30;;;;;;;1.90;1.70;;;;;;;9.18;77.72;97883.99;226557;1272;22551;-77
2024/02/24 11:05:34;;;;;;;2.60;2.20;;;;;;;9.37;76.88;97886.34;226648;1255;22575;-79
2024/02/24 11:10:40;;;;;;;3.00;2.10;;;;;;;9.48;76.98;97891.08;226586;1271;22562;-78
2024/02/24 11:15:42;;;;;;;2.30;2.10;;;;;;;9.68;76.91;97881.91;226516;1268;22640;-76
2024/02/24 11:20:51;;;;;;;3.60;2.40;;;;;;;9.84;76.24;97893.77;226696;1263;22574;-77
2024/02/24 11:26:21;;;;;;;3.20;2.50;;;;;;;9.93;76.08;97896.73;226613;1269;25051;-77
2024/02/24 11:31:31;;;;;;;4.40;3.00;;;;;;;9.90;75.04;97893.82;226667;1269;22542;-78
2024/02/24 11:36:34;;;;;;;3.60;2.60;;;;;;;9.90;75.61;97886.95;226388;1255;22589;-77
2024/02/24 11:41:39;;;;;;;5.00;2.90;;;;;;;10.00;75.84;97890.79;226361;1254;22571;-76
2024/02/24 11:46:45;;;;;;;2.90;2.60;;;;;;;10.07;75.06;97897.27;226493;1253;24274;-78
2024/02/24 11:51:47;;;;;;;3.10;2.50;;;;;;;10.08;74.61;97906.58;226585;1272;22590;-78
2024/02/24 11:56:50;;;;;;;5.90;4.50;;;;;;;10.12;74.81;97915.89;226647;1255;22545;-78
2024/02/24 12:01:52;;;;;;;4.50;2.40;;;;;;;10.05;74.12;97918.59;226287;1275;22603;-78
2024/02/24 12:06:55;;;;;;;2.30;2.10;;;;;;;10.01;74.47;97921.95;226338;1268;22583;-77
2024/02/24 12:11:57;;;;;;;2.30;2.00;;;;;;;10.06;74.38;97922.36;226650;1275;22784;-78
2024/02/24 12:16:59;;;;;;;3.00;2.40;;;;;;;10.04;73.46;97922.61;226483;1268;22556;-78
2024/02/24 12:22:08;;;;;;;3.10;2.60;;;;;;;10.12;74.06;97926.78;226530;1269;22612;-78
2024/02/24 12:27:11;;;;;;;4.50;2.60;;;;;;;10.34;74.27;97930.98;226705;1273;22589;-78
2024/02/24 12:32:13;;;;;;;3.00;2.40;;;;;;;10.50;73.41;97935.41;226871;1274;22548;-77
2024/02/24 12:37:15;;;;;;;2.80;2.10;;;;;;;10.56;72.90;97939.11;226868;1275;22535;-78
2024/02/24 12:42:17;;;;;;;2.50;2.30;;;;;;;10.57;72.81;97943.02;226789;1274;22577;-78
2024/02/24 12:47:19;;;;;;;1.70;1.60;;;;;;;10.62;72.03;97950.00;226908;1273;22550;-77
2024/02/24 12:52:21;;;;;;;7.90;4.00;;;;;;;10.68;72.24;97949.61;226789;1274;22598;-77
2024/02/24 12:57:23;;;;;;;5.10;2.30;;;;;;;10.80;71.87;97948.23;226917;1267;22606;-77
2024/02/24 13:02:28;;;;;;;3.00;2.20;;;;;;;10.92;71.74;97956.95;226853;1271;23773;-77
2024/02/24 13:07:31;;;;;;;2.50;2.30;;;;;;;11.01;71.24;97960.77;226722;1269;22553;-77
2024/02/24 13:12:33;;;;;;;2.70;2.50;;;;;;;11.07;70.73;97966.85;226748;1274;24890;-77
2024/02/24 13:17:35;;;;;;;3.20;2.30;;;;;;;11.01;70.81;97972.02;226908;1271;22698;-78
2024/02/24 13:22:40;;;;;;;2.70;2.20;;;;;;;11.02;71.20;97976.91;226745;1273;23022;-78
2024/02/24 13:27:44;;;;;;;3.00;2.30;;;;;;;11.16;71.58;97983.68;226904;1273;22746;-78
2024/02/24 13:32:46;;;;;;;2.80;2.20;;;;;;;11.25;70.87;97988.73;226764;1271;22577;-78
2024/02/24 13:37:48;;;;;;;2.90;2.50;;;;;;;11.19;70.47;97989.11;226718;1275;22538;-78
2024/02/24 13:42:51;;;;;;;3.20;2.40;;;;;;;11.09;70.10;97998.52;226895;1268;24409;-77
2024/02/24 13:47:53;;;;;;;2.30;2.10;;;;;;;11.04;70.28;98008.91;226858;1271;22538;-77
2024/02/24 13:52:56;;;;;;;2.40;2.00;;;;;;;10.95;69.60;98012.69;226782;1251;25374;-77
2024/02/24 13:57:58;;;;;;;2.90;2.10;;;;;;;10.88;70.03;98012.62;226718;1252;24235;-78
2024/02/24 14:03:01;;;;;;;2.30;2.10;;;;;;;10.84;69.98;98016.62;226745;1274;22539;-78
2024/02/24 14:08:04;;;;;;;2.30;2.10;;;;;;;10.80;70.23;98023.31;226952;1271;22530;-77
2024/02/24 14:13:07;;;;;;;2.60;2.00;;;;;;;10.78;70.34;98029.29;226615;1273;231319;-79
2024/02/24 14:18:08;;;;;;;2.30;2.00;;;;;;;10.67;69.93;98031.30;226962;1269;22657;-78
2024/02/24 14:23:11;;;;;;;2.20;2.00;;;;;;;10.58;70.17;98033.39;226795;1273;22543;-77
2024/02/24 14:28:13;;;;;;;2.10;1.90;;;;;;;10.53;70.67;98043.04;226933;1269;22539;-78
2024/02/24 14:33:15;;;;;;;2.20;2.00;;;;;;;10.50;70.87;98043.45;226773;1265;22543;-78
2024/02/24 14:38:17;;;;;;;2.70;2.10;;;;;;;10.45;70.84;98044.34;226821;1268;23283;-77
2024/02/24 14:43:19;;;;;;;3.60;2.50;;;;;;;10.31;70.66;98052.20;226875;1268;24280;-77
2024/02/24 14:48:22;;;;;;;3.40;2.20;;;;;;;10.14;70.56;98065.16;226871;1268;22553;-78
2024/02/24 14:53:24;;;;;;;3.50;2.30;;;;;;;10.01;70.94;98075.14;226877;1274;22554;-77
2024/02/24 14:58:27;;;;;;;3.30;2.80;;;;;;;9.88;71.11;98083.90;226848;1275;22573;-77
2024/02/24 15:03:30;;;;;;;4.40;3.00;;;;;;;9.77;71.57;98083.60;226907;1273;22544;-78
2024/02/24 15:08:32;;;;;;;5.00;3.30;;;;;;;9.66;71.89;98087.91;226896;1271;25298;-78
2024/02/24 15:13:34;;;;;;;4.50;3.30;;;;;;;9.53;72.03;98088.76;226856;1271;22537;-77
2024/02/24 15:18:39;;;;;;;7.00;4.30;;;;;;;9.45;72.28;98101.80;226871;1271;22556;-79
2024/02/24 15:23:41;;;;;;;7.20;4.90;;;;;;;9.34;72.36;98108.00;226847;1274;23063;-79
2024/02/24 15:28:43;;;;;;;6.80;4.80;;;;;;;9.22;72.25;98115.17;226732;1274;22566;-78
2024/02/24 15:33:45;;;;;;;8.00;5.70;;;;;;;9.11;72.78;98113.97;226821;1275;22558;-78
2024/02/24 15:38:47;;;;;;;9.30;6.00;;;;;;;8.99;72.78;98116.59;226856;1275;22587;-78
2024/02/24 15:43:51;;;;;;;9.50;6.60;;;;;;;8.89;73.20;98122.44;226761;1274;22558;-78
2024/02/24 15:48:53;;;;;;;9.10;6.40;;;;;;;8.77;73.59;98130.88;226778;1268;22552;-78
2024/02/24 15:53:55;;;;;;;7.70;6.30;;;;;;;8.63;73.65;98134.74;226837;1273;22555;-78
2024/02/24 15:58:58;;;;;;;10.10;6.80;;;;;;;8.52;74.37;98144.58;226840;1271;23103;-77
2024/02/24 16:04:00;;;;;;;9.50;6.60;;;;;;;8.42;74.15;98149.72;226781;1268;22538;-78
2024/02/24 16:09:03;;;;;;;9.10;7.00;;;;;;;8.31;74.87;98155.05;226709;1271;22611;-78
2024/02/24 16:14:06;;;;;;;12.00;8.80;;;;;;;8.20;75.12;98160.99;226883;1271;22661;-78
2024/02/24 16:19:09;;;;;;;14.00;8.90;;;;;;;8.05;75.19;98167.40;226846;1272;22544;-79
2024/02/24 16:24:13;;;;;;;13.50;9.60;;;;;;;7.88;75.22;98175.08;226871;1260;22554;-78
2024/02/24 16:29:16;;;;;;;12.70;9.20;;;;;;;7.77;75.33;98171.02;226863;1271;22560;-78
2024/02/24 16:34:18;;;;;;;14.20;9.70;;;;;;;7.67;75.53;98177.96;226820;1273;24241;-78
2024/02/24 16:39:22;;;;;;;13.20;9.40;;;;;;;7.59;75.59;98181.31;226893;1274;22550;-78
2024/02/24 16:44:24;;;;;;;16.50;11.70;;;;;;;7.49;75.81;98184.06;226706;1273;22540;-77
2024/02/24 16:49:26;;;;;;;19.40;12.10;;;;;;;7.40;76.26;98192.33;226867;1271;22571;-79
2024/02/24 16:54:28;;;;;;;35.90;21.50;;;;;;;7.32;76.47;98193.71;226749;1274;22546;-79
2024/02/24 16:59:30;;;;;;;42.20;25.40;;;;;;;7.25;76.22;98193.83;226857;1271;22960;-78
2024/02/24 17:04:33;;;;;;;42.60;26.00;;;;;;;7.18;76.66;98196.80;226797;1268;22555;-79
2024/02/24 17:09:35;;;;;;;50.20;30.60;;;;;;;7.12;77.07;98207.90;226738;1274;22550;-78
2024/02/24 17:14:37;;;;;;;50.60;28.90;;;;;;;7.05;77.01;98211.25;226832;1272;22547;-78
2024/02/24 17:19:39;;;;;;;42.00;23.70;;;;;;;6.98;77.59;98216.73;226819;1269;23632;-77
2024/02/24 17:24:41;;;;;;;31.30;20.60;;;;;;;6.90;77.70;98221.38;226869;1271;22555;-78
2024/02/24 17:29:44;;;;;;;38.80;23.70;;;;;;;6.81;77.62;98223.59;226778;1273;22561;-78
2024/02/24 17:34:46;;;;;;;38.70;26.40;;;;;;;6.73;77.78;98231.38;226782;1271;25352;-78
2024/02/24 17:39:52;;;;;;;35.60;23.30;;;;;;;6.63;78.10;98238.77;226837;1271;22573;-78
2024/02/24 17:44:54;;;;;;;34.60;22.30;;;;;;;6.53;78.08;98249.41;226747;1273;22545;-78
2024/02/24 17:49:58;;;;;;;39.10;24.60;;;;;;;6.42;78.21;98246.27;226766;1273;22548;-77
2024/02/24 17:55:00;;;;;;;39.80;23.00;;;;;;;6.32;78.29;98253.56;226790;1271;22538;-78
2024/02/24 18:00:06;;;;;;;32.30;20.60;;;;;;;6.23;78.27;98242.40;226703;1268;24410;-78
2024/02/24 18:05:09;;;;;;;32.50;20.60;;;;;;;6.14;78.89;98231.87;226684;1268;25435;-79
2024/02/24 18:10:12;;;;;;;30.40;21.20;;;;;;;6.08;79.07;98229.13;226793;1269;22558;-78
2024/02/24 18:15:14;;;;;;;34.40;21.30;;;;;;;6.01;79.26;98236.80;226724;1272;22558;-78
2024/02/24 18:20:16;;;;;;;34.10;21.00;;;;;;;5.96;79.56;98243.44;226763;1274;22575;-79
2024/02/24 18:25:18;;;;;;;29.50;20.90;;;;;;;5.92;79.43;98253.56;226723;1271;22551;-77
2024/02/24 18:30:21;;;;;;;27.30;18.80;;;;;;;5.89;79.32;98261.64;226817;1271;22579;-78
2024/02/24 18:35:23;;;;;;;30.40;20.10;;;;;;;5.84;79.39;98265.98;226761;1273;22643;-79
2024/02/24 18:40:25;;;;;;;39.30;27.00;;;;;;;5.75;79.31;98266.48;226814;1271;22541;-78
2024/02/24 18:45:27;;;;;;;59.90;38.00;;;;;;;5.67;79.66;98275.55;226747;1274;22549;-77
2024/02/24 18:50:29;;;;;;;82.00;50.70;;;;;;;5.64;80.03;98278.35;226764;1271;22535;-79
2024/02/24 18:55:31;;;;;;;97.00;54.90;;;;;;;5.61;79.85;98272.70;226740;1273;22538;-79
2024/02/24 19:00:33;;;;;;;110.80;62.40;;;;;;;5.59;80.28;98273.84;226732;1274;22548;-78
2024/02/24 19:05:35;;;;;;;121.60;66.90;;;;;;;5.57;80.41;98282.46;226746;1273;25363;-78
2024/02/24 19:10:38;;;;;;;122.00;68.80;;;;;;;5.54;80.49;98282.73;226763;1273;22547;-78
2024/02/24 19:15:40;;;;;;;120.50;69.60;;;;;;;5.51;80.45;98275.04;226814;1273;22553;-79
2024/02/24 19:20:42;;;;;;;115.70;63.30;;;;;;;5.47;80.53;98268.84;226778;1272;22542;-79
2024/02/24 19:25:44;;;;;;;106.10;58.50;;;;;;;5.43;81.06;98260.73;226832;1272;22566;-78
2024/02/24 19:30:45;;;;;;;94.50;54.30;;;;;;;5.40;80.79;98265.48;226757;1275;22550;-78
2024/02/24 19:35:47;;;;;;;92.80;52.90;;;;;;;5.38;81.05;98271.96;226765;1269;22654;-78
2024/02/24 19:40:49;;;;;;;85.90;47.00;;;;;;;5.36;81.00;98273.56;226819;1273;22548;-78
2024/02/24 19:45:53;;;;;;;89.90;48.20;;;;;;;5.34;81.18;98272.04;226801;1273;25949;-79
2024/02/24 19:50:57;;;;;;;88.90;47.00;;;;;;;5.30;81.16;98271.60;226793;1271;22550;-78
2024/02/24 19:55:59;;;;;;;81.70;43.00;;;;;;;5.24;80.78;98278.54;226761;1274;22566;-78
2024/02/24 20:01:02;;;;;;;81.90;42.50;;;;;;;5.15;81.04;98285.83;226799;1271;22517;-78
2024/02/24 20:06:07;;;;;;;77.70;41.40;;;;;;;5.07;80.91;98298.91;226558;1268;22551;-78
2024/02/24 20:11:09;;;;;;;72.90;40.70;;;;;;;4.98;80.91;98302.99;226763;1268;25319;-78
2024/02/24 20:16:11;;;;;;;86.40;49.00;;;;;;;4.90;81.21;98300.17;226762;1271;22539;-79
2024/02/24 20:21:14;;;;;;;81.60;46.70;;;;;;;4.85;81.36;98288.04;226701;1271;24379;-78
2024/02/24 20:26:16;;;;;;;84.40;49.30;;;;;;;4.80;81.41;98275.86;226753;1274;22530;-78
2024/02/24 20:31:19;;;;;;;61.80;35.80;;;;;;;4.70;81.31;98283.59;226797;1274;22546;-77
2024/02/24 20:36:21;;;;;;;68.30;39.40;;;;;;;4.62;81.35;98283.67;226748;1271;25403;-78
2024/02/24 20:41:25;;;;;;;74.80;44.80;;;;;;;4.55;81.62;98285.45;226705;1274;22564;-78
2024/02/24 20:46:27;;;;;;;79.70;45.00;;;;;;;4.46;81.52;98284.64;226763;1271;22600;-78
2024/02/24 20:51:31;;;;;;;65.80;39.40;;;;;;;4.38;81.54;98281.20;226713;1274;22647;-78
2024/02/24 20:56:33;;;;;;;71.70;42.70;;;;;;;4.33;81.51;98284.20;226759;1271;22557;-78
2024/02/24 21:01:35;;;;;;;75.70;43.40;;;;;;;4.26;81.53;98283.02;226715;1271;22657;-77
2024/02/24 21:06:37;;;;;;;82.50;43.70;;;;;;;4.21;81.85;98287.50;226752;1273;24404;-78
2024/02/24 21:11:39;;;;;;;71.20;40.50;;;;;;;4.17;81.72;98293.43;226694;1271;24376;-78
2024/02/24 21:16:41;;;;;;;78.50;45.40;;;;;;;4.14;82.11;98296.81;226753;1271;22573;-78
2024/02/24 21:21:43;;;;;;;86.80;46.20;;;;;;;4.11;82.10;98291.51;226695;1274;25246;-78
2024/02/24 21:26:46;;;;;;;103.50;54.50;;;;;;;4.09;82.29;98291.86;226702;1271;23020;-79
2024/02/24 21:31:48;;;;;;;117.80;60.50;;;;;;;4.11;82.31;98295.88;226761;1271;22546;-79
2024/02/24 21:36:55;;;;;;;97.80;53.50;;;;;;;4.14;82.40;98291.95;226725;1271;22671;-79
2024/02/24 21:41:57;;;;;;;97.10;51.30;;;;;;;4.15;82.35;98288.94;226704;1275;22569;-79
2024/02/24 21:47:00;;;;;;;75.50;43.60;;;;;;;4.20;82.52;98281.48;226761;1255;22571;-78
2024/02/24 21:52:02;;;;;;;71.60;41.40;;;;;;;4.25;82.67;98274.05;226718;1273;25060;-79
2024/02/24 21:57:08;;;;;;;69.70;39.40;;;;;;;4.29;82.53;98265.93;226728;1271;22550;-78
2024/02/24 22:02:10;;;;;;;55.90;33.70;;;;;;;4.32;82.93;98260.04;226746;1274;22547;-79
2024/02/24 22:07:17;;;;;;;63.00;38.30;;;;;;;4.39;83.10;98257.89;226769;1275;22641;-79
2024/02/24 22:12:19;;;;;;;75.30;43.00;;;;;;;4.50;82.96;98257.93;226714;1275;22542;-80
2024/02/24 22:17:21;;;;;;;72.10;42.90;;;;;;;4.55;82.83;98262.33;226666;1275;22566;-78
2024/02/24 22:22:23;;;;;;;82.50;48.00;;;;;;;4.51;82.69;98258.83;226683;1275;24215;-79
2024/02/24 22:27:25;;;;;;;100.10;56.00;;;;;;;4.49;82.95;98250.05;226720;1274;22553;-79
2024/02/24 22:32:27;;;;;;;94.50;55.10;;;;;;;4.45;82.56;98250.31;226673;1274;22599;-78
2024/02/24 22:37:29;;;;;;;80.00;48.50;;;;;;;4.38;82.67;98258.15;226704;1274;22613;-78
2024/02/24 22:42:33;;;;;;;77.40;44.40;;;;;;;4.35;82.90;98257.46;226735;1270;22557;-79
2024/02/24 22:47:35;;;;;;;76.70;44.30;;;;;;;4.34;82.98;98259.77;226588;1275;22550;-78
2024/02/24 22:52:37;;;;;;;70.70;42.70;;;;;;;4.33;82.99;98260.10;226709;1269;22559;-78
2024/02/24 22:57:39;;;;;;;65.70;39.00;;;;;;;4.31;83.01;98252.61;226754;1271;22568;-77
2024/02/24 23:02:41;;;;;;;63.70;39.90;;;;;;;4.31;83.41;98257.97;226722;1269;22632;-78
2024/02/24 23:07:43;;;;;;;61.80;38.10;;;;;;;4.36;83.51;98252.98;226754;1272;22640;-78
2024/02/24 23:12:45;;;;;;;69.90;44.30;;;;;;;4.36;83.33;98248.38;226711;1274;25256;-77
2024/02/24 23:17:48;;;;;;;59.80;36.70;;;;;;;4.33;82.90;98251.53;226722;1268;25271;-79
2024/02/24 23:22:50;;;;;;;54.10;34.50;;;;;;;4.31;83.62;98252.35;226673;1275;22647;-78
2024/02/24 23:27:52;;;;;;;56.60;33.80;;;;;;;4.27;83.38;98252.52;226828;1272;22641;-77
2024/02/24 23:32:54;;;;;;;58.20;34.70;;;;;;;4.24;83.28;98251.27;226753;1275;22558;-78